sensor_id;sensor_type;location;lat;lon;timestamp;temperature;humidity
66598;DHT22;57424;53.128;6.406;2022-08-19T00:01:36;24.80;58.30
66598;DHT22;57424;53.128;6.406;2022-08-19T00:04:05;24.80;58.30
66598;DHT22;57424;53.128;6.406;2022-08-19T00:06:31;24.80;58.30
66598;DHT22;57424;53.128;6.406;2022-08-19T00:08:58;24.80;58.20
66598;DHT22;57424;53.128;6.406;2022-08-19T00:11:26;24.80;58.30
66598;DHT22;57424;53.128;6.406;2022-08-19T00:13:53;24.70;58.90
66598;DHT22;57424;53.128;6.406;2022-08-19T00:16:19;24.70;58.20
66598;DHT22;57424;53.128;6.406;2022-08-19T00:18:46;24.70;58.20
66598;DHT22;57424;53.128;6.406;2022-08-19T00:21:12;24.70;58.30
66598;DHT22;57424;53.128;6.406;2022-08-19T00:23:38;24.70;58.20
66598;DHT22;57424;53.128;6.406;2022-08-19T00:26:04;24.70;58.20
66598;DHT22;57424;53.128;6.406;2022-08-19T00:28:30;24.70;58.20
66598;DHT22;57424;53.128;6.406;2022-08-19T00:30:56;24.70;58.20
66598;DHT22;57424;53.128;6.406;2022-08-19T00:33:22;24.70;58.20
66598;DHT22;57424;53.128;6.406;2022-08-19T00:35:47;24.70;58.30
66598;DHT22;57424;53.128;6.406;2022-08-19T00:38:13;24.70;58.20
66598;DHT22;57424;53.128;6.406;2022-08-19T00:40:40;24.60;58.20
66598;DHT22;57424;53.128;6.406;2022-08-19T00:43:11;24.60;58.20
66598;DHT22;57424;53.128;6.406;2022-08-19T00:45:39;24.60;58.20
66598;DHT22;57424;53.128;6.406;2022-08-19T00:48:06;24.60;58.20
66598;DHT22;57424;53.128;6.406;2022-08-19T00:50:33;24.60;58.20
66598;DHT22;57424;53.128;6.406;2022-08-19T00:52:59;24.60;58.20
66598;DHT22;57424;53.128;6.406;2022-08-19T00:55:31;24.60;58.20
66598;DHT22;57424;53.128;6.406;2022-08-19T00:58:11;24.60;58.20
66598;DHT22;57424;53.128;6.406;2022-08-19T01:00:37;24.60;58.20
66598;DHT22;57424;53.128;6.406;2022-08-19T01:03:09;24.60;58.20
66598;DHT22;57424;53.128;6.406;2022-08-19T01:05:36;24.60;58.20
66598;DHT22;57424;53.128;6.406;2022-08-19T01:08:04;24.60;58.20
66598;DHT22;57424;53.128;6.406;2022-08-19T01:10:44;24.50;58.30
66598;DHT22;57424;53.128;6.406;2022-08-19T01:13:11;24.50;58.20
66598;DHT22;57424;53.128;6.406;2022-08-19T01:15:47;24.50;58.20
66598;DHT22;57424;53.128;6.406;2022-08-19T01:18:15;24.50;58.10
66598;DHT22;57424;53.128;6.406;2022-08-19T01:20:42;24.50;58.20
66598;DHT22;57424;53.128;6.406;2022-08-19T01:23:08;24.50;58.20
66598;DHT22;57424;53.128;6.406;2022-08-19T01:25:47;24.50;58.20
66598;DHT22;57424;53.128;6.406;2022-08-19T01:28:26;24.50;58.10
66598;DHT22;57424;53.128;6.406;2022-08-19T01:30:53;24.50;58.10
66598;DHT22;57424;53.128;6.406;2022-08-19T01:33:19;24.50;58.20
66598;DHT22;57424;53.128;6.406;2022-08-19T01:35:45;24.40;58.10
66598;DHT22;57424;53.128;6.406;2022-08-19T01:38:24;24.50;58.20
66598;DHT22;57424;53.128;6.406;2022-08-19T01:40:50;24.50;58.10
66598;DHT22;57424;53.128;6.406;2022-08-19T01:43:16;24.40;58.10
66598;DHT22;57424;53.128;6.406;2022-08-19T01:45:43;24.40;58.10
66598;DHT22;57424;53.128;6.406;2022-08-19T01:48:09;24.40;58.10
66598;DHT22;57424;53.128;6.406;2022-08-19T01:50:36;24.40;58.10
66598;DHT22;57424;53.128;6.406;2022-08-19T01:53:05;24.40;58.10
66598;DHT22;57424;53.128;6.406;2022-08-19T01:55:31;24.40;58.10
66598;DHT22;57424;53.128;6.406;2022-08-19T01:57:59;24.40;58.10
66598;DHT22;57424;53.128;6.406;2022-08-19T02:00:30;24.40;58.10
66598;DHT22;57424;53.128;6.406;2022-08-19T02:02:56;24.40;58.30
66598;DHT22;57424;53.128;6.406;2022-08-19T02:05:22;24.30;58.00
66598;DHT22;57424;53.128;6.406;2022-08-19T02:07:48;24.30;58.10
66598;DHT22;57424;53.128;6.406;2022-08-19T02:10:20;24.30;58.00
66598;DHT22;57424;53.128;6.406;2022-08-19T02:12:46;24.30;58.00
66598;DHT22;57424;53.128;6.406;2022-08-19T02:15:12;24.30;58.10
66598;DHT22;57424;53.128;6.406;2022-08-19T02:17:38;24.30;58.00
66598;DHT22;57424;53.128;6.406;2022-08-19T02:20:04;24.30;58.00
66598;DHT22;57424;53.128;6.406;2022-08-19T02:22:32;24.30;58.00
66598;DHT22;57424;53.128;6.406;2022-08-19T02:24:58;24.30;58.00
66598;DHT22;57424;53.128;6.406;2022-08-19T02:27:23;24.30;58.00
66598;DHT22;57424;53.128;6.406;2022-08-19T02:29:50;24.30;58.20
66598;DHT22;57424;53.128;6.406;2022-08-19T02:32:17;24.30;58.00
66598;DHT22;57424;53.128;6.406;2022-08-19T02:34:45;24.30;58.00
66598;DHT22;57424;53.128;6.406;2022-08-19T02:37:11;24.30;58.00
66598;DHT22;57424;53.128;6.406;2022-08-19T02:39:57;24.20;58.00
66598;DHT22;57424;53.128;6.406;2022-08-19T02:42:23;24.20;58.00
66598;DHT22;57424;53.128;6.406;2022-08-19T02:44:49;24.20;58.00
66598;DHT22;57424;53.128;6.406;2022-08-19T02:47:15;24.20;58.00
66598;DHT22;57424;53.128;6.406;2022-08-19T02:49:41;24.20;58.00
66598;DHT22;57424;53.128;6.406;2022-08-19T02:52:07;24.20;58.00
66598;DHT22;57424;53.128;6.406;2022-08-19T02:54:33;24.20;58.00
66598;DHT22;57424;53.128;6.406;2022-08-19T02:56:59;24.20;58.00
66598;DHT22;57424;53.128;6.406;2022-08-19T02:59:24;24.20;58.00
66598;DHT22;57424;53.128;6.406;2022-08-19T03:01:52;24.20;58.00
66598;DHT22;57424;53.128;6.406;2022-08-19T03:04:17;24.10;57.90
66598;DHT22;57424;53.128;6.406;2022-08-19T03:06:45;24.20;58.00
66598;DHT22;57424;53.128;6.406;2022-08-19T03:09:12;24.20;58.60
66598;DHT22;57424;53.128;6.406;2022-08-19T03:11:38;24.20;58.00
66598;DHT22;57424;53.128;6.406;2022-08-19T03:14:05;24.10;57.90
66598;DHT22;57424;53.128;6.406;2022-08-19T03:16:34;24.10;57.90
66598;DHT22;57424;53.128;6.406;2022-08-19T03:19:01;24.10;57.90
66598;DHT22;57424;53.128;6.406;2022-08-19T03:21:30;24.10;57.90
66598;DHT22;57424;53.128;6.406;2022-08-19T03:23:57;24.10;57.90
66598;DHT22;57424;53.128;6.406;2022-08-19T03:26:23;24.10;57.90
66598;DHT22;57424;53.128;6.406;2022-08-19T03:28:49;24.10;57.90
66598;DHT22;57424;53.128;6.406;2022-08-19T03:31:17;24.10;58.00
66598;DHT22;57424;53.128;6.406;2022-08-19T03:33:43;24.10;58.00
66598;DHT22;57424;53.128;6.406;2022-08-19T03:36:15;24.10;57.90
66598;DHT22;57424;53.128;6.406;2022-08-19T03:38:44;24.10;57.90
66598;DHT22;57424;53.128;6.406;2022-08-19T03:41:13;24.10;57.90
66598;DHT22;57424;53.128;6.406;2022-08-19T03:43:39;24.00;57.80
66598;DHT22;57424;53.128;6.406;2022-08-19T03:46:08;24.10;57.90
66598;DHT22;57424;53.128;6.406;2022-08-19T03:48:35;24.10;57.90
66598;DHT22;57424;53.128;6.406;2022-08-19T03:51:01;24.00;57.80
66598;DHT22;57424;53.128;6.406;2022-08-19T03:53:28;24.00;57.80
66598;DHT22;57424;53.128;6.406;2022-08-19T03:55:55;24.00;57.80
66598;DHT22;57424;53.128;6.406;2022-08-19T03:58:22;24.00;57.80
66598;DHT22;57424;53.128;6.406;2022-08-19T04:00:48;24.00;57.80
66598;DHT22;57424;53.128;6.406;2022-08-19T04:03:14;24.00;57.80
66598;DHT22;57424;53.128;6.406;2022-08-19T04:05:40;24.00;57.80
66598;DHT22;57424;53.128;6.406;2022-08-19T04:08:06;24.00;57.90
66598;DHT22;57424;53.128;6.406;2022-08-19T04:10:35;24.00;57.80
66598;DHT22;57424;53.128;6.406;2022-08-19T04:13:02;24.00;57.80
66598;DHT22;57424;53.128;6.406;2022-08-19T04:15:29;24.00;57.80
66598;DHT22;57424;53.128;6.406;2022-08-19T04:17:56;23.90;57.70
66598;DHT22;57424;53.128;6.406;2022-08-19T04:20:22;23.90;57.70
66598;DHT22;57424;53.128;6.406;2022-08-19T04:22:47;23.90;57.70
66598;DHT22;57424;53.128;6.406;2022-08-19T04:25:13;23.90;57.70
66598;DHT22;57424;53.128;6.406;2022-08-19T04:27:38;23.90;57.70
66598;DHT22;57424;53.128;6.406;2022-08-19T04:30:04;23.90;57.70
66598;DHT22;57424;53.128;6.406;2022-08-19T04:32:30;23.90;57.70
66598;DHT22;57424;53.128;6.406;2022-08-19T04:34:57;23.90;57.70
66598;DHT22;57424;53.128;6.406;2022-08-19T04:37:24;23.90;57.70
66598;DHT22;57424;53.128;6.406;2022-08-19T04:39:51;23.90;57.70
66598;DHT22;57424;53.128;6.406;2022-08-19T04:42:36;23.90;57.70
66598;DHT22;57424;53.128;6.406;2022-08-19T04:45:06;23.90;57.80
66598;DHT22;57424;53.128;6.406;2022-08-19T04:47:32;23.90;57.70
66598;DHT22;57424;53.128;6.406;2022-08-19T04:49:58;23.90;57.70
66598;DHT22;57424;53.128;6.406;2022-08-19T04:52:24;23.80;57.60
66598;DHT22;57424;53.128;6.406;2022-08-19T04:54:49;23.90;57.70
66598;DHT22;57424;53.128;6.406;2022-08-19T04:57:16;23.90;57.70
66598;DHT22;57424;53.128;6.406;2022-08-19T04:59:41;23.90;57.70
66598;DHT22;57424;53.128;6.406;2022-08-19T05:02:08;23.90;57.70
66598;DHT22;57424;53.128;6.406;2022-08-19T05:04:34;23.80;57.60
66598;DHT22;57424;53.128;6.406;2022-08-19T05:07:03;23.80;57.60
66598;DHT22;57424;53.128;6.406;2022-08-19T05:09:29;23.80;57.60
66598;DHT22;57424;53.128;6.406;2022-08-19T05:11:55;23.80;57.60
66598;DHT22;57424;53.128;6.406;2022-08-19T05:14:21;23.80;57.60
66598;DHT22;57424;53.128;6.406;2022-08-19T05:16:47;23.80;57.50
66598;DHT22;57424;53.128;6.406;2022-08-19T05:19:13;23.80;57.60
66598;DHT22;57424;53.128;6.406;2022-08-19T05:21:58;23.80;57.50
66598;DHT22;57424;53.128;6.406;2022-08-19T05:24:43;23.80;57.60
66598;DHT22;57424;53.128;6.406;2022-08-19T05:27:08;23.80;57.60
66598;DHT22;57424;53.128;6.406;2022-08-19T05:29:34;23.80;57.50
66598;DHT22;57424;53.128;6.406;2022-08-19T05:32:02;23.80;57.50
66598;DHT22;57424;53.128;6.406;2022-08-19T05:34:28;23.80;57.60
66598;DHT22;57424;53.128;6.406;2022-08-19T05:36:56;23.80;57.50
66598;DHT22;57424;53.128;6.406;2022-08-19T05:39:24;23.80;58.20
66598;DHT22;57424;53.128;6.406;2022-08-19T05:41:55;23.80;57.50
66598;DHT22;57424;53.128;6.406;2022-08-19T05:44:24;23.80;57.70
66598;DHT22;57424;53.128;6.406;2022-08-19T05:46:50;23.80;57.90
66598;DHT22;57424;53.128;6.406;2022-08-19T05:49:19;23.80;57.90
66598;DHT22;57424;53.128;6.406;2022-08-19T05:51:45;23.90;58.00
66598;DHT22;57424;53.128;6.406;2022-08-19T05:54:11;23.90;57.80
66598;DHT22;57424;53.128;6.406;2022-08-19T05:56:40;23.90;57.80
66598;DHT22;57424;53.128;6.406;2022-08-19T05:59:08;23.90;57.70
66598;DHT22;57424;53.128;6.406;2022-08-19T06:01:37;24.00;57.60
66598;DHT22;57424;53.128;6.406;2022-08-19T06:04:04;24.00;57.40
66598;DHT22;57424;53.128;6.406;2022-08-19T06:06:30;24.10;57.10
66598;DHT22;57424;53.128;6.406;2022-08-19T06:08:55;24.20;56.90
66598;DHT22;57424;53.128;6.406;2022-08-19T06:11:25;24.40;56.30
66598;DHT22;57424;53.128;6.406;2022-08-19T06:13:59;24.70;55.70
66598;DHT22;57424;53.128;6.406;2022-08-19T06:16:25;24.90;55.10
66598;DHT22;57424;53.128;6.406;2022-08-19T06:18:53;25.20;54.60
66598;DHT22;57424;53.128;6.406;2022-08-19T06:21:25;25.30;54.20
66598;DHT22;57424;53.128;6.406;2022-08-19T06:23:52;25.50;54.10
66598;DHT22;57424;53.128;6.406;2022-08-19T06:26:19;25.40;54.10
66598;DHT22;57424;53.128;6.406;2022-08-19T06:28:46;25.30;54.20
66598;DHT22;57424;53.128;6.406;2022-08-19T06:31:14;25.20;55.10
66598;DHT22;57424;53.128;6.406;2022-08-19T06:33:40;25.10;54.70
66598;DHT22;57424;53.128;6.406;2022-08-19T06:36:07;25.00;55.00
66598;DHT22;57424;53.128;6.406;2022-08-19T06:38:33;25.00;55.30
66598;DHT22;57424;53.128;6.406;2022-08-19T06:41:05;24.90;55.60
66598;DHT22;57424;53.128;6.406;2022-08-19T06:43:31;24.90;55.80
66598;DHT22;57424;53.128;6.406;2022-08-19T06:45:56;24.80;55.90
66598;DHT22;57424;53.128;6.406;2022-08-19T06:48:22;24.90;55.80
66598;DHT22;57424;53.128;6.406;2022-08-19T06:50:47;25.10;55.60
66598;DHT22;57424;53.128;6.406;2022-08-19T06:53:15;25.20;55.20
66598;DHT22;57424;53.128;6.406;2022-08-19T06:55:40;25.40;55.00
66598;DHT22;57424;53.128;6.406;2022-08-19T06:58:06;25.50;54.70
66598;DHT22;57424;53.128;6.406;2022-08-19T07:00:32;25.70;54.60
66598;DHT22;57424;53.128;6.406;2022-08-19T07:02:58;25.80;54.40
66598;DHT22;57424;53.128;6.406;2022-08-19T07:05:24;25.90;54.20
66598;DHT22;57424;53.128;6.406;2022-08-19T07:07:50;25.90;54.00
66598;DHT22;57424;53.128;6.406;2022-08-19T07:10:15;26.00;54.10
66598;DHT22;57424;53.128;6.406;2022-08-19T07:12:41;26.10;53.90
66598;DHT22;57424;53.128;6.406;2022-08-19T07:15:07;26.20;53.80
66598;DHT22;57424;53.128;6.406;2022-08-19T07:17:36;26.30;53.70
66598;DHT22;57424;53.128;6.406;2022-08-19T07:20:05;26.30;53.50
66598;DHT22;57424;53.128;6.406;2022-08-19T07:22:32;26.30;53.30
66598;DHT22;57424;53.128;6.406;2022-08-19T07:24:58;26.40;53.70
66598;DHT22;57424;53.128;6.406;2022-08-19T07:27:23;26.50;53.30
66598;DHT22;57424;53.128;6.406;2022-08-19T07:29:49;26.50;53.30
66598;DHT22;57424;53.128;6.406;2022-08-19T07:32:15;26.60;53.30
66598;DHT22;57424;53.128;6.406;2022-08-19T07:34:40;26.60;53.30
66598;DHT22;57424;53.128;6.406;2022-08-19T07:37:06;26.60;53.30
66598;DHT22;57424;53.128;6.406;2022-08-19T07:39:34;26.70;53.40
66598;DHT22;57424;53.128;6.406;2022-08-19T07:42:05;26.70;53.30
66598;DHT22;57424;53.128;6.406;2022-08-19T07:44:32;26.70;53.10
66598;DHT22;57424;53.128;6.406;2022-08-19T07:46:59;26.80;53.00
66598;DHT22;57424;53.128;6.406;2022-08-19T07:49:25;26.80;53.00
66598;DHT22;57424;53.128;6.406;2022-08-19T07:51:56;26.80;52.90
66598;DHT22;57424;53.128;6.406;2022-08-19T07:54:24;26.80;52.90
66598;DHT22;57424;53.128;6.406;2022-08-19T07:56:50;26.90;52.90
66598;DHT22;57424;53.128;6.406;2022-08-19T07:59:17;26.80;52.80
66598;DHT22;57424;53.128;6.406;2022-08-19T08:01:43;26.90;52.80
66598;DHT22;57424;53.128;6.406;2022-08-19T08:04:09;26.90;52.80
66598;DHT22;57424;53.128;6.406;2022-08-19T08:06:53;26.90;52.80
66598;DHT22;57424;53.128;6.406;2022-08-19T08:09:40;26.90;52.70
66598;DHT22;57424;53.128;6.406;2022-08-19T08:12:19;26.90;52.70
66598;DHT22;57424;53.128;6.406;2022-08-19T08:14:50;26.90;52.70
66598;DHT22;57424;53.128;6.406;2022-08-19T08:17:19;26.90;52.60
66598;DHT22;57424;53.128;6.406;2022-08-19T08:19:46;26.90;52.60
66598;DHT22;57424;53.128;6.406;2022-08-19T08:22:15;26.90;52.60
66598;DHT22;57424;53.128;6.406;2022-08-19T08:25:21;27.00;52.60
66598;DHT22;57424;53.128;6.406;2022-08-19T08:27:48;27.00;52.80
66598;DHT22;57424;53.128;6.406;2022-08-19T08:30:19;27.00;52.70
66598;DHT22;57424;53.128;6.406;2022-08-19T08:32:45;27.00;52.90
66598;DHT22;57424;53.128;6.406;2022-08-19T08:35:14;27.00;52.70
66598;DHT22;57424;53.128;6.406;2022-08-19T08:37:40;27.10;52.80
66598;DHT22;57424;53.128;6.406;2022-08-19T08:42:43;27.20;52.70
66598;DHT22;57424;53.128;6.406;2022-08-19T08:45:12;27.20;53.00
66598;DHT22;57424;53.128;6.406;2022-08-19T08:47:42;27.20;52.70
66598;DHT22;57424;53.128;6.406;2022-08-19T08:50:32;27.20;52.90
66598;DHT22;57424;53.128;6.406;2022-08-19T08:53:01;27.10;52.90
66598;DHT22;57424;53.128;6.406;2022-08-19T08:55:28;27.10;53.00
66598;DHT22;57424;53.128;6.406;2022-08-19T08:58:13;27.10;53.00
66598;DHT22;57424;53.128;6.406;2022-08-19T09:00:46;27.10;53.00
66598;DHT22;57424;53.128;6.406;2022-08-19T09:03:22;27.10;53.10
66598;DHT22;57424;53.128;6.406;2022-08-19T09:05:59;27.00;53.00
66598;DHT22;57424;53.128;6.406;2022-08-19T09:08:43;27.10;53.20
66598;DHT22;57424;53.128;6.406;2022-08-19T09:11:32;27.10;53.20
66598;DHT22;57424;53.128;6.406;2022-08-19T09:16:49;27.00;53.30
66598;DHT22;57424;53.128;6.406;2022-08-19T09:19:16;27.00;53.40
66598;DHT22;57424;53.128;6.406;2022-08-19T09:21:42;27.00;53.50
66598;DHT22;57424;53.128;6.406;2022-08-19T09:24:08;27.00;54.20
66598;DHT22;57424;53.128;6.406;2022-08-19T09:26:34;27.00;53.60
66598;DHT22;57424;53.128;6.406;2022-08-19T09:29:01;27.00;53.60
66598;DHT22;57424;53.128;6.406;2022-08-19T09:31:31;27.20;53.40
66598;DHT22;57424;53.128;6.406;2022-08-19T09:33:58;27.20;53.20
66598;DHT22;57424;53.128;6.406;2022-08-19T09:36:26;27.20;53.40
66598;DHT22;57424;53.128;6.406;2022-08-19T09:38:52;27.10;53.70
66598;DHT22;57424;53.128;6.406;2022-08-19T09:41:20;27.00;53.80
66598;DHT22;57424;53.128;6.406;2022-08-19T09:43:49;26.90;54.00
66598;DHT22;57424;53.128;6.406;2022-08-19T09:46:18;26.80;54.30
66598;DHT22;57424;53.128;6.406;2022-08-19T09:48:47;26.80;54.70
66598;DHT22;57424;53.128;6.406;2022-08-19T09:51:17;26.70;54.90
66598;DHT22;57424;53.128;6.406;2022-08-19T09:53:45;26.70;55.20
66598;DHT22;57424;53.128;6.406;2022-08-19T09:56:12;26.60;55.30
66598;DHT22;57424;53.128;6.406;2022-08-19T09:58:39;26.60;55.40
66598;DHT22;57424;53.128;6.406;2022-08-19T10:01:06;26.50;55.40
66598;DHT22;57424;53.128;6.406;2022-08-19T10:03:33;26.50;55.60
66598;DHT22;57424;53.128;6.406;2022-08-19T10:06:01;26.40;56.30
66598;DHT22;57424;53.128;6.406;2022-08-19T10:08:34;26.40;55.70
66598;DHT22;57424;53.128;6.406;2022-08-19T10:11:01;26.30;55.80
66598;DHT22;57424;53.128;6.406;2022-08-19T10:13:29;26.30;56.00
66598;DHT22;57424;53.128;6.406;2022-08-19T10:16:07;26.30;56.00
66598;DHT22;57424;53.128;6.406;2022-08-19T10:18:33;26.20;56.10
66598;DHT22;57424;53.128;6.406;2022-08-19T10:21:15;26.20;56.20
66598;DHT22;57424;53.128;6.406;2022-08-19T10:23:44;26.10;56.10
66598;DHT22;57424;53.128;6.406;2022-08-19T10:26:12;26.10;56.20
66598;DHT22;57424;53.128;6.406;2022-08-19T10:28:38;26.00;56.30
66598;DHT22;57424;53.128;6.406;2022-08-19T10:31:09;26.00;57.00
66598;DHT22;57424;53.128;6.406;2022-08-19T10:33:36;26.00;56.40
66598;DHT22;57424;53.128;6.406;2022-08-19T10:36:12;25.90;56.40
66598;DHT22;57424;53.128;6.406;2022-08-19T10:38:41;25.90;56.40
66598;DHT22;57424;53.128;6.406;2022-08-19T10:41:09;25.90;56.50
66598;DHT22;57424;53.128;6.406;2022-08-19T10:43:35;25.90;56.50
66598;DHT22;57424;53.128;6.406;2022-08-19T10:46:05;25.90;56.60
66598;DHT22;57424;53.128;6.406;2022-08-19T10:48:32;25.80;56.60
66598;DHT22;57424;53.128;6.406;2022-08-19T10:50:58;25.80;56.80
66598;DHT22;57424;53.128;6.406;2022-08-19T10:53:42;25.80;56.80
66598;DHT22;57424;53.128;6.406;2022-08-19T10:56:08;25.80;56.90
66598;DHT22;57424;53.128;6.406;2022-08-19T10:58:52;25.80;56.90
66598;DHT22;57424;53.128;6.406;2022-08-19T11:01:18;25.80;57.00
66598;DHT22;57424;53.128;6.406;2022-08-19T11:03:43;25.80;57.00
66598;DHT22;57424;53.128;6.406;2022-08-19T11:06:10;25.80;57.10
66598;DHT22;57424;53.128;6.406;2022-08-19T11:08:36;25.80;57.20
66598;DHT22;57424;53.128;6.406;2022-08-19T11:11:07;25.80;57.20
66598;DHT22;57424;53.128;6.406;2022-08-19T11:13:36;25.80;57.20
66598;DHT22;57424;53.128;6.406;2022-08-19T11:16:20;25.80;57.30
66598;DHT22;57424;53.128;6.406;2022-08-19T11:18:52;25.80;57.30
66598;DHT22;57424;53.128;6.406;2022-08-19T11:21:23;25.80;57.30
66598;DHT22;57424;53.128;6.406;2022-08-19T11:23:52;25.80;57.30
66598;DHT22;57424;53.128;6.406;2022-08-19T11:26:19;25.90;58.00
66598;DHT22;57424;53.128;6.406;2022-08-19T11:28:45;25.90;57.40
66598;DHT22;57424;53.128;6.406;2022-08-19T11:31:17;25.90;57.30
66598;DHT22;57424;53.128;6.406;2022-08-19T11:33:43;26.00;57.20
66598;DHT22;57424;53.128;6.406;2022-08-19T11:36:09;26.10;56.80
66598;DHT22;57424;53.128;6.406;2022-08-19T11:38:35;26.30;56.20
66598;DHT22;57424;53.128;6.406;2022-08-19T11:41:04;26.60;55.80
66598;DHT22;57424;53.128;6.406;2022-08-19T11:43:30;26.70;56.00
66598;DHT22;57424;53.128;6.406;2022-08-19T11:45:57;26.90;55.00
66598;DHT22;57424;53.128;6.406;2022-08-19T11:48:24;27.00;54.60
66598;DHT22;57424;53.128;6.406;2022-08-19T11:50:51;27.20;54.40
66598;DHT22;57424;53.128;6.406;2022-08-19T11:53:18;27.30;54.30
66598;DHT22;57424;53.128;6.406;2022-08-19T11:55:48;27.40;54.10
66598;DHT22;57424;53.128;6.406;2022-08-19T11:58:16;27.40;54.30
66598;DHT22;57424;53.128;6.406;2022-08-19T12:00:42;27.50;53.80
66598;DHT22;57424;53.128;6.406;2022-08-19T12:03:11;27.50;53.60
66598;DHT22;57424;53.128;6.406;2022-08-19T12:05:38;27.60;53.60
66598;DHT22;57424;53.128;6.406;2022-08-19T12:08:04;27.60;53.80
66598;DHT22;57424;53.128;6.406;2022-08-19T12:10:29;27.70;53.50
66598;DHT22;57424;53.128;6.406;2022-08-19T12:12:55;27.70;53.30
66598;DHT22;57424;53.128;6.406;2022-08-19T12:15:21;27.70;53.20
66598;DHT22;57424;53.128;6.406;2022-08-19T12:17:46;27.80;53.20
66598;DHT22;57424;53.128;6.406;2022-08-19T12:20:13;27.80;53.10
66598;DHT22;57424;53.128;6.406;2022-08-19T12:22:41;27.80;52.90
66598;DHT22;57424;53.128;6.406;2022-08-19T12:25:10;27.90;52.90
66598;DHT22;57424;53.128;6.406;2022-08-19T12:27:37;27.90;52.80
66598;DHT22;57424;53.128;6.406;2022-08-19T12:30:03;27.90;52.80
66598;DHT22;57424;53.128;6.406;2022-08-19T12:32:29;28.00;52.80
66598;DHT22;57424;53.128;6.406;2022-08-19T12:34:55;28.00;52.80
66598;DHT22;57424;53.128;6.406;2022-08-19T12:37:20;28.00;52.70
66598;DHT22;57424;53.128;6.406;2022-08-19T12:39:46;28.00;52.60
66598;DHT22;57424;53.128;6.406;2022-08-19T12:42:13;28.00;52.40
66598;DHT22;57424;53.128;6.406;2022-08-19T12:44:40;28.10;52.50
66598;DHT22;57424;53.128;6.406;2022-08-19T12:47:07;28.10;52.40
66598;DHT22;57424;53.128;6.406;2022-08-19T12:49:33;28.10;52.20
66598;DHT22;57424;53.128;6.406;2022-08-19T12:52:03;28.20;52.20
66598;DHT22;57424;53.128;6.406;2022-08-19T12:54:29;28.20;52.10
66598;DHT22;57424;53.128;6.406;2022-08-19T12:56:58;28.20;52.50
66598;DHT22;57424;53.128;6.406;2022-08-19T12:59:25;28.20;52.10
66598;DHT22;57424;53.128;6.406;2022-08-19T13:01:51;28.20;51.90
66598;DHT22;57424;53.128;6.406;2022-08-19T13:04:16;28.20;51.80
66598;DHT22;57424;53.128;6.406;2022-08-19T13:06:42;28.30;51.80
66598;DHT22;57424;53.128;6.406;2022-08-19T13:09:08;28.30;51.70
66598;DHT22;57424;53.128;6.406;2022-08-19T13:11:35;28.30;51.70
66598;DHT22;57424;53.128;6.406;2022-08-19T13:14:03;28.30;51.50
66598;DHT22;57424;53.128;6.406;2022-08-19T13:16:29;28.30;51.60
66598;DHT22;57424;53.128;6.406;2022-08-19T13:18:56;28.30;51.50
66598;DHT22;57424;53.128;6.406;2022-08-19T13:21:26;28.40;51.50
66598;DHT22;57424;53.128;6.406;2022-08-19T13:23:53;28.40;51.50
66598;DHT22;57424;53.128;6.406;2022-08-19T13:26:20;28.40;51.50
66598;DHT22;57424;53.128;6.406;2022-08-19T13:28:46;28.40;51.50
66598;DHT22;57424;53.128;6.406;2022-08-19T13:31:33;28.40;51.50
66598;DHT22;57424;53.128;6.406;2022-08-19T13:34:18;28.40;51.60
66598;DHT22;57424;53.128;6.406;2022-08-19T13:36:44;28.40;51.90
66598;DHT22;57424;53.128;6.406;2022-08-19T13:39:10;28.40;51.60
66598;DHT22;57424;53.128;6.406;2022-08-19T13:41:37;28.40;51.60
66598;DHT22;57424;53.128;6.406;2022-08-19T13:44:04;28.40;51.60
66598;DHT22;57424;53.128;6.406;2022-08-19T13:46:31;28.40;51.70
66598;DHT22;57424;53.128;6.406;2022-08-19T13:48:56;28.40;51.70
66598;DHT22;57424;53.128;6.406;2022-08-19T13:51:22;28.30;51.60
66598;DHT22;57424;53.128;6.406;2022-08-19T13:53:48;28.30;51.70
66598;DHT22;57424;53.128;6.406;2022-08-19T13:56:18;28.30;51.70
66598;DHT22;57424;53.128;6.406;2022-08-19T13:58:47;28.30;51.80
66598;DHT22;57424;53.128;6.406;2022-08-19T14:01:19;28.30;51.90
66598;DHT22;57424;53.128;6.406;2022-08-19T14:03:45;28.30;51.90
66598;DHT22;57424;53.128;6.406;2022-08-19T14:06:10;28.30;51.90
66598;DHT22;57424;53.128;6.406;2022-08-19T14:08:36;28.30;52.00
66598;DHT22;57424;53.128;6.406;2022-08-19T14:11:04;28.30;52.70
66598;DHT22;57424;53.128;6.406;2022-08-19T14:13:30;28.30;52.00
66598;DHT22;57424;53.128;6.406;2022-08-19T14:15:57;28.30;52.00
66598;DHT22;57424;53.128;6.406;2022-08-19T14:18:23;28.30;52.00
66598;DHT22;57424;53.128;6.406;2022-08-19T14:20:50;28.30;52.00
66598;DHT22;57424;53.128;6.406;2022-08-19T14:23:16;28.30;52.00
66598;DHT22;57424;53.128;6.406;2022-08-19T14:25:43;28.30;52.10
66598;DHT22;57424;53.128;6.406;2022-08-19T14:28:08;28.20;52.10
66598;DHT22;57424;53.128;6.406;2022-08-19T14:30:36;28.20;52.30
66598;DHT22;57424;53.128;6.406;2022-08-19T14:33:04;28.10;52.30
66598;DHT22;57424;53.128;6.406;2022-08-19T14:35:31;28.10;52.50
66598;DHT22;57424;53.128;6.406;2022-08-19T14:38:01;28.00;52.40
66598;DHT22;57424;53.128;6.406;2022-08-19T14:40:29;28.00;52.40
66598;DHT22;57424;53.128;6.406;2022-08-19T14:42:57;28.00;52.40
66598;DHT22;57424;53.128;6.406;2022-08-19T14:45:26;28.00;52.40
66598;DHT22;57424;53.128;6.406;2022-08-19T14:47:52;28.00;52.40
66598;DHT22;57424;53.128;6.406;2022-08-19T14:50:18;28.00;52.50
66598;DHT22;57424;53.128;6.406;2022-08-19T14:52:47;28.00;52.50
66598;DHT22;57424;53.128;6.406;2022-08-19T14:55:14;27.90;52.60
66598;DHT22;57424;53.128;6.406;2022-08-19T14:57:43;27.80;52.60
66598;DHT22;57424;53.128;6.406;2022-08-19T15:00:10;27.80;52.70
66598;DHT22;57424;53.128;6.406;2022-08-19T15:02:39;27.80;52.90
66598;DHT22;57424;53.128;6.406;2022-08-19T15:05:05;27.70;52.90
66598;DHT22;57424;53.128;6.406;2022-08-19T15:07:31;27.70;53.00
66598;DHT22;57424;53.128;6.406;2022-08-19T15:09:57;27.70;53.10
66598;DHT22;57424;53.128;6.406;2022-08-19T15:12:23;27.60;53.10
66598;DHT22;57424;53.128;6.406;2022-08-19T15:14:49;27.60;53.20
66598;DHT22;57424;53.128;6.406;2022-08-19T15:17:18;27.60;53.30
66598;DHT22;57424;53.128;6.406;2022-08-19T15:19:44;27.60;53.30
66598;DHT22;57424;53.128;6.406;2022-08-19T15:22:11;27.60;53.30
66598;DHT22;57424;53.128;6.406;2022-08-19T15:24:36;27.60;53.30
66598;DHT22;57424;53.128;6.406;2022-08-19T15:27:03;27.50;53.30
66598;DHT22;57424;53.128;6.406;2022-08-19T15:29:30;27.50;53.30
66598;DHT22;57424;53.128;6.406;2022-08-19T15:31:56;27.60;53.40
66598;DHT22;57424;53.128;6.406;2022-08-19T15:34:23;27.60;53.40
66598;DHT22;57424;53.128;6.406;2022-08-19T15:36:50;27.60;53.40
66598;DHT22;57424;53.128;6.406;2022-08-19T15:39:16;27.60;53.30
66598;DHT22;57424;53.128;6.406;2022-08-19T15:41:43;27.60;53.40